sensor_id;sensor_type;location;lat;lon;timestamp;P1;durP1;ratioP1;P2;durP2;ratioP2
18360;SDS011;9308;48.550;9.108;2022-12-31T00:00:39;0.90;;;0.90;;
18360;SDS011;9308;48.550;9.108;2022-12-31T00:03:06;0.80;;;0.80;;
18360;SDS011;9308;48.550;9.108;2022-12-31T00:05:34;1.33;;;0.90;;
18360;SDS011;9308;48.550;9.108;2022-12-31T00:08:01;1.07;;;1.07;;
18360;SDS011;9308;48.550;9.108;2022-12-31T00:10:27;0.83;;;0.83;;
18360;SDS011;9308;48.550;9.108;2022-12-31T00:12:53;0.90;;;0.73;;
18360;SDS011;9308;48.550;9.108;2022-12-31T00:15:19;0.80;;;0.77;;
18360;SDS011;9308;48.550;9.108;2022-12-31T00:17:45;1.23;;;0.80;;
18360;SDS011;9308;48.550;9.108;2022-12-31T00:20:11;1.07;;;1.07;;
18360;SDS011;9308;48.550;9.108;2022-12-31T00:22:37;1.30;;;0.80;;
18360;SDS011;9308;48.550;9.108;2022-12-31T00:25:02;0.90;;;0.90;;
18360;SDS011;9308;48.550;9.108;2022-12-31T00:27:29;1.10;;;0.90;;
18360;SDS011;9308;48.550;9.108;2022-12-31T00:29:55;0.70;;;0.70;;
18360;SDS011;9308;48.550;9.108;2022-12-31T00:32:22;0.90;;;0.87;;
18360;SDS011;9308;48.550;9.108;2022-12-31T00:34:48;0.80;;;0.80;;
18360;SDS011;9308;48.550;9.108;2022-12-31T00:37:14;1.10;;;1.10;;
18360;SDS011;9308;48.550;9.108;2022-12-31T00:39:39;1.03;;;0.73;;
18360;SDS011;9308;48.550;9.108;2022-12-31T00:42:05;0.90;;;0.90;;
18360;SDS011;9308;48.550;9.108;2022-12-31T00:44:30;1.73;;;1.10;;
18360;SDS011;9308;48.550;9.108;2022-12-31T00:46:56;1.53;;;0.80;;
18360;SDS011;9308;48.550;9.108;2022-12-31T00:49:22;0.90;;;0.87;;
18360;SDS011;9308;48.550;9.108;2022-12-31T00:51:47;0.93;;;0.90;;
18360;SDS011;9308;48.550;9.108;2022-12-31T00:54:13;0.90;;;0.90;;
18360;SDS011;9308;48.550;9.108;2022-12-31T00:56:38;1.10;;;0.93;;
18360;SDS011;9308;48.550;9.108;2022-12-31T00:59:04;1.00;;;1.00;;
18360;SDS011;9308;48.550;9.108;2022-12-31T01:01:34;0.73;;;0.70;;
18360;SDS011;9308;48.550;9.108;2022-12-31T01:04:03;1.10;;;1.00;;
18360;SDS011;9308;48.550;9.108;2022-12-31T01:06:31;1.40;;;1.30;;
18360;SDS011;9308;48.550;9.108;2022-12-31T01:08:56;0.77;;;0.77;;
18360;SDS011;9308;48.550;9.108;2022-12-31T01:11:22;1.10;;;1.00;;
18360;SDS011;9308;48.550;9.108;2022-12-31T01:13:53;1.07;;;0.90;;
18360;SDS011;9308;48.550;9.108;2022-12-31T01:16:20;1.00;;;0.70;;
18360;SDS011;9308;48.550;9.108;2022-12-31T01:18:48;1.00;;;0.90;;
18360;SDS011;9308;48.550;9.108;2022-12-31T01:21:14;0.80;;;0.80;;
18360;SDS011;9308;48.550;9.108;2022-12-31T01:23:40;1.50;;;1.10;;
18360;SDS011;9308;48.550;9.108;2022-12-31T01:26:06;1.73;;;1.20;;
18360;SDS011;9308;48.550;9.108;2022-12-31T01:28:33;1.17;;;0.83;;
18360;SDS011;9308;48.550;9.108;2022-12-31T01:31:02;0.90;;;0.90;;
18360;SDS011;9308;48.550;9.108;2022-12-31T01:33:32;0.90;;;0.90;;
18360;SDS011;9308;48.550;9.108;2022-12-31T01:36:17;0.90;;;0.90;;
18360;SDS011;9308;48.550;9.108;2022-12-31T01:38:44;1.10;;;1.00;;
18360;SDS011;9308;48.550;9.108;2022-12-31T01:41:16;0.80;;;0.80;;
18360;SDS011;9308;48.550;9.108;2022-12-31T01:43:45;0.90;;;0.90;;
18360;SDS011;9308;48.550;9.108;2022-12-31T01:46:34;1.00;;;1.00;;
18360;SDS011;9308;48.550;9.108;2022-12-31T01:49:19;0.97;;;0.97;;
18360;SDS011;9308;48.550;9.108;2022-12-31T01:51:56;0.77;;;0.77;;
18360;SDS011;9308;48.550;9.108;2022-12-31T01:54:27;1.37;;;1.00;;
18360;SDS011;9308;48.550;9.108;2022-12-31T01:56:57;1.10;;;1.00;;
18360;SDS011;9308;48.550;9.108;2022-12-31T01:59:23;1.50;;;1.00;;
18360;SDS011;9308;48.550;9.108;2022-12-31T02:01:52;0.93;;;0.90;;
18360;SDS011;9308;48.550;9.108;2022-12-31T02:04:18;0.90;;;0.90;;
18360;SDS011;9308;48.550;9.108;2022-12-31T02:06:51;1.00;;;0.90;;
18360;SDS011;9308;48.550;9.108;2022-12-31T02:09:20;1.30;;;1.20;;
18360;SDS011;9308;48.550;9.108;2022-12-31T02:11:45;1.10;;;0.97;;
18360;SDS011;9308;48.550;9.108;2022-12-31T02:22:37;1.20;;;1.10;;
18360;SDS011;9308;48.550;9.108;2022-12-31T02:25:27;0.97;;;0.80;;
18360;SDS011;9308;48.550;9.108;2022-12-31T02:28:07;0.90;;;0.90;;
18360;SDS011;9308;48.550;9.108;2022-12-31T02:30:36;0.80;;;0.80;;
18360;SDS011;9308;48.550;9.108;2022-12-31T02:33:09;1.33;;;1.20;;
18360;SDS011;9308;48.550;9.108;2022-12-31T02:35:45;1.10;;;0.97;;
18360;SDS011;9308;48.550;9.108;2022-12-31T02:38:17;1.40;;;1.10;;
18360;SDS011;9308;48.550;9.108;2022-12-31T02:40:45;0.90;;;0.90;;
18360;SDS011;9308;48.550;9.108;2022-12-31T02:43:11;1.40;;;1.20;;
18360;SDS011;9308;48.550;9.108;2022-12-31T02:45:38;1.00;;;1.00;;
18360;SDS011;9308;48.550;9.108;2022-12-31T02:48:13;1.37;;;1.00;;
18360;SDS011;9308;48.550;9.108;2022-12-31T02:50:44;2.47;;;1.43;;
18360;SDS011;9308;48.550;9.108;2022-12-31T02:53:29;3.90;;;1.00;;
18360;SDS011;9308;48.550;9.108;2022-12-31T02:59:04;2.07;;;1.40;;
18360;SDS011;9308;48.550;9.108;2022-12-31T03:01:59;1.03;;;1.00;;
18360;SDS011;9308;48.550;9.108;2022-12-31T03:04:39;1.20;;;1.10;;
18360;SDS011;9308;48.550;9.108;2022-12-31T03:07:26;1.80;;;1.27;;
18360;SDS011;9308;48.550;9.108;2022-12-31T03:09:53;0.90;;;0.90;;
18360;SDS011;9308;48.550;9.108;2022-12-31T03:12:20;0.90;;;0.90;;
18360;SDS011;9308;48.550;9.108;2022-12-31T03:15:06;1.50;;;1.40;;
18360;SDS011;9308;48.550;9.108;2022-12-31T03:17:46;1.23;;;0.90;;
18360;SDS011;9308;48.550;9.108;2022-12-31T03:20:16;1.00;;;1.00;;
18360;SDS011;9308;48.550;9.108;2022-12-31T03:23:00;1.10;;;1.10;;
18360;SDS011;9308;48.550;9.108;2022-12-31T03:25:28;1.20;;;1.10;;
18360;SDS011;9308;48.550;9.108;2022-12-31T03:27:58;1.40;;;1.30;;
18360;SDS011;9308;48.550;9.108;2022-12-31T03:30:24;2.73;;;1.17;;
18360;SDS011;9308;48.550;9.108;2022-12-31T03:32:50;0.80;;;0.80;;
18360;SDS011;9308;48.550;9.108;2022-12-31T03:35:16;1.53;;;1.10;;
18360;SDS011;9308;48.550;9.108;2022-12-31T03:37:44;1.27;;;0.80;;
18360;SDS011;9308;48.550;9.108;2022-12-31T03:40:12;0.90;;;0.90;;
18360;SDS011;9308;48.550;9.108;2022-12-31T03:42:39;1.00;;;0.90;;
18360;SDS011;9308;48.550;9.108;2022-12-31T03:45:05;1.20;;;1.00;;
18360;SDS011;9308;48.550;9.108;2022-12-31T03:47:31;1.07;;;1.07;;
18360;SDS011;9308;48.550;9.108;2022-12-31T03:49:56;1.27;;;1.10;;
18360;SDS011;9308;48.550;9.108;2022-12-31T03:52:22;1.03;;;1.00;;
18360;SDS011;9308;48.550;9.108;2022-12-31T03:54:47;0.90;;;0.90;;
18360;SDS011;9308;48.550;9.108;2022-12-31T03:57:13;1.80;;;1.10;;
18360;SDS011;9308;48.550;9.108;2022-12-31T03:59:38;1.20;;;1.10;;
18360;SDS011;9308;48.550;9.108;2022-12-31T04:02:04;1.03;;;1.00;;
18360;SDS011;9308;48.550;9.108;2022-12-31T04:04:30;1.27;;;1.00;;
18360;SDS011;9308;48.550;9.108;2022-12-31T04:06:55;0.90;;;0.83;;
18360;SDS011;9308;48.550;9.108;2022-12-31T04:09:21;0.90;;;0.90;;
18360;SDS011;9308;48.550;9.108;2022-12-31T04:11:46;1.10;;;1.00;;
18360;SDS011;9308;48.550;9.108;2022-12-31T04:14:12;0.93;;;0.93;;
18360;SDS011;9308;48.550;9.108;2022-12-31T04:16:37;1.03;;;0.90;;
18360;SDS011;9308;48.550;9.108;2022-12-31T04:19:03;0.97;;;0.90;;
18360;SDS011;9308;48.550;9.108;2022-12-31T04:21:28;0.90;;;0.90;;
18360;SDS011;9308;48.550;9.108;2022-12-31T04:23:54;1.00;;;1.00;;
18360;SDS011;9308;48.550;9.108;2022-12-31T04:26:19;1.30;;;1.20;;
18360;SDS011;9308;48.550;9.108;2022-12-31T04:28:45;1.70;;;0.80;;
18360;SDS011;9308;48.550;9.108;2022-12-31T04:31:11;1.07;;;0.97;;
18360;SDS011;9308;48.550;9.108;2022-12-31T04:33:36;1.00;;;0.83;;
18360;SDS011;9308;48.550;9.108;2022-12-31T04:36:02;1.30;;;1.20;;
18360;SDS011;9308;48.550;9.108;2022-12-31T04:38:30;1.20;;;1.20;;
18360;SDS011;9308;48.550;9.108;2022-12-31T04:40:55;1.43;;;1.33;;
18360;SDS011;9308;48.550;9.108;2022-12-31T04:43:40;1.30;;;1.30;;
18360;SDS011;9308;48.550;9.108;2022-12-31T04:46:05;1.50;;;1.40;;
18360;SDS011;9308;48.550;9.108;2022-12-31T04:48:34;2.73;;;1.27;;
18360;SDS011;9308;48.550;9.108;2022-12-31T04:51:00;1.17;;;1.00;;
18360;SDS011;9308;48.550;9.108;2022-12-31T04:53:25;1.00;;;1.00;;
18360;SDS011;9308;48.550;9.108;2022-12-31T04:55:51;1.10;;;1.10;;
18360;SDS011;9308;48.550;9.108;2022-12-31T04:58:17;1.60;;;1.50;;
18360;SDS011;9308;48.550;9.108;2022-12-31T05:00:44;1.10;;;1.00;;
18360;SDS011;9308;48.550;9.108;2022-12-31T05:03:13;1.07;;;1.07;;
18360;SDS011;9308;48.550;9.108;2022-12-31T05:05:39;1.30;;;1.30;;
18360;SDS011;9308;48.550;9.108;2022-12-31T05:08:07;1.30;;;1.20;;
18360;SDS011;9308;48.550;9.108;2022-12-31T05:10:39;0.90;;;0.90;;
18360;SDS011;9308;48.550;9.108;2022-12-31T05:13:05;1.63;;;0.90;;
18360;SDS011;9308;48.550;9.108;2022-12-31T05:15:31;1.13;;;1.13;;
18360;SDS011;9308;48.550;9.108;2022-12-31T05:17:56;1.07;;;1.03;;
18360;SDS011;9308;48.550;9.108;2022-12-31T05:20:22;1.97;;;0.90;;
18360;SDS011;9308;48.550;9.108;2022-12-31T05:22:47;1.13;;;1.07;;
18360;SDS011;9308;48.550;9.108;2022-12-31T05:25:13;1.40;;;1.07;;
18360;SDS011;9308;48.550;9.108;2022-12-31T05:27:38;0.83;;;0.83;;
18360;SDS011;9308;48.550;9.108;2022-12-31T05:30:04;1.00;;;1.00;;
18360;SDS011;9308;48.550;9.108;2022-12-31T05:32:31;1.17;;;1.07;;
18360;SDS011;9308;48.550;9.108;2022-12-31T05:34:56;1.07;;;1.00;;
18360;SDS011;9308;48.550;9.108;2022-12-31T05:37:24;1.40;;;1.30;;
18360;SDS011;9308;48.550;9.108;2022-12-31T05:39:50;1.33;;;1.23;;
18360;SDS011;9308;48.550;9.108;2022-12-31T05:42:16;1.30;;;1.20;;
18360;SDS011;9308;48.550;9.108;2022-12-31T05:44:41;0.90;;;0.90;;
18360;SDS011;9308;48.550;9.108;2022-12-31T05:47:07;1.40;;;1.00;;
18360;SDS011;9308;48.550;9.108;2022-12-31T05:49:32;1.00;;;1.00;;
18360;SDS011;9308;48.550;9.108;2022-12-31T05:51:58;1.23;;;1.13;;
18360;SDS011;9308;48.550;9.108;2022-12-31T05:54:23;0.90;;;0.90;;
18360;SDS011;9308;48.550;9.108;2022-12-31T05:56:49;1.23;;;1.23;;
18360;SDS011;9308;48.550;9.108;2022-12-31T05:59:14;1.10;;;1.00;;
18360;SDS011;9308;48.550;9.108;2022-12-31T06:01:39;2.30;;;1.00;;
18360;SDS011;9308;48.550;9.108;2022-12-31T06:04:05;1.00;;;1.00;;
18360;SDS011;9308;48.550;9.108;2022-12-31T06:06:30;1.13;;;1.13;;
18360;SDS011;9308;48.550;9.108;2022-12-31T06:08:56;0.97;;;0.97;;
18360;SDS011;9308;48.550;9.108;2022-12-31T06:11:21;1.63;;;1.10;;
18360;SDS011;9308;48.550;9.108;2022-12-31T06:13:47;1.67;;;1.00;;
18360;SDS011;9308;48.550;9.108;2022-12-31T06:16:13;1.27;;;1.17;;
18360;SDS011;9308;48.550;9.108;2022-12-31T06:18:38;1.20;;;1.10;;
18360;SDS011;9308;48.550;9.108;2022-12-31T06:21:03;1.00;;;1.00;;
18360;SDS011;9308;48.550;9.108;2022-12-31T06:23:29;1.00;;;1.00;;
18360;SDS011;9308;48.550;9.108;2022-12-31T06:25:55;1.43;;;1.40;;
18360;SDS011;9308;48.550;9.108;2022-12-31T06:28:20;1.40;;;1.30;;
18360;SDS011;9308;48.550;9.108;2022-12-31T06:30:46;1.87;;;1.17;;
18360;SDS011;9308;48.550;9.108;2022-12-31T06:33:12;1.03;;;1.03;;
18360;SDS011;9308;48.550;9.108;2022-12-31T06:35:37;1.00;;;1.00;;
18360;SDS011;9308;48.550;9.108;2022-12-31T06:38:03;1.00;;;1.00;;
18360;SDS011;9308;48.550;9.108;2022-12-31T06:40:28;1.80;;;1.30;;
18360;SDS011;9308;48.550;9.108;2022-12-31T06:42:53;1.30;;;1.30;;
18360;SDS011;9308;48.550;9.108;2022-12-31T06:45:19;2.10;;;1.50;;
18360;SDS011;9308;48.550;9.108;2022-12-31T06:47:44;1.23;;;1.23;;
18360;SDS011;9308;48.550;9.108;2022-12-31T06:50:10;1.20;;;1.20;;
18360;SDS011;9308;48.550;9.108;2022-12-31T06:52:35;1.13;;;0.90;;
18360;SDS011;9308;48.550;9.108;2022-12-31T06:55:01;1.30;;;1.20;;
18360;SDS011;9308;48.550;9.108;2022-12-31T06:57:28;1.50;;;1.50;;
18360;SDS011;9308;48.550;9.108;2022-12-31T06:59:53;2.30;;;2.10;;
18360;SDS011;9308;48.550;9.108;2022-12-31T07:05:57;1.60;;;1.50;;
18360;SDS011;9308;48.550;9.108;2022-12-31T07:08:36;1.67;;;1.53;;
18360;SDS011;9308;48.550;9.108;2022-12-31T07:19:31;1.80;;;1.70;;
18360;SDS011;9308;48.550;9.108;2022-12-31T07:22:12;2.03;;;1.93;;
18360;SDS011;9308;48.550;9.108;2022-12-31T07:24:39;2.17;;;1.80;;
18360;SDS011;9308;48.550;9.108;2022-12-31T07:30:06;1.90;;;1.80;;
18360;SDS011;9308;48.550;9.108;2022-12-31T07:32:41;1.80;;;1.70;;
18360;SDS011;9308;48.550;9.108;2022-12-31T07:38:19;1.50;;;1.40;;
18360;SDS011;9308;48.550;9.108;2022-12-31T07:41:04;1.70;;;1.60;;
18360;SDS011;9308;48.550;9.108;2022-12-31T07:43:43;1.50;;;1.40;;
18360;SDS011;9308;48.550;9.108;2022-12-31T07:46:26;1.60;;;1.50;;
18360;SDS011;9308;48.550;9.108;2022-12-31T07:48:57;1.23;;;1.20;;
18360;SDS011;9308;48.550;9.108;2022-12-31T07:51:23;1.33;;;1.33;;
18360;SDS011;9308;48.550;9.108;2022-12-31T07:53:49;1.50;;;1.43;;
18360;SDS011;9308;48.550;9.108;2022-12-31T07:56:14;1.70;;;1.60;;
18360;SDS011;9308;48.550;9.108;2022-12-31T07:58:49;1.63;;;1.53;;
18360;SDS011;9308;48.550;9.108;2022-12-31T08:01:47;1.53;;;1.43;;
18360;SDS011;9308;48.550;9.108;2022-12-31T08:04:25;1.27;;;1.20;;
18360;SDS011;9308;48.550;9.108;2022-12-31T08:12:17;1.73;;;1.50;;
18360;SDS011;9308;48.550;9.108;2022-12-31T08:14:44;1.40;;;1.30;;
18360;SDS011;9308;48.550;9.108;2022-12-31T08:17:12;1.50;;;1.40;;
18360;SDS011;9308;48.550;9.108;2022-12-31T08:19:40;1.60;;;1.30;;
18360;SDS011;9308;48.550;9.108;2022-12-31T08:30:53;1.70;;;1.60;;
18360;SDS011;9308;48.550;9.108;2022-12-31T08:33:47;1.30;;;1.20;;
18360;SDS011;9308;48.550;9.108;2022-12-31T08:39:37;2.10;;;1.43;;
18360;SDS011;9308;48.550;9.108;2022-12-31T08:42:08;3.13;;;1.53;;
18360;SDS011;9308;48.550;9.108;2022-12-31T08:44:46;1.47;;;1.37;;
18360;SDS011;9308;48.550;9.108;2022-12-31T08:47:30;1.40;;;1.40;;
18360;SDS011;9308;48.550;9.108;2022-12-31T08:50:03;3.63;;;1.40;;
18360;SDS011;9308;48.550;9.108;2022-12-31T08:52:29;2.03;;;1.60;;
18360;SDS011;9308;48.550;9.108;2022-12-31T08:54:55;2.20;;;1.90;;
18360;SDS011;9308;48.550;9.108;2022-12-31T09:00:14;1.40;;;1.20;;
18360;SDS011;9308;48.550;9.108;2022-12-31T09:02:50;1.60;;;1.50;;
18360;SDS011;9308;48.550;9.108;2022-12-31T09:11:27;1.60;;;1.50;;
18360;SDS011;9308;48.550;9.108;2022-12-31T09:16:48;1.50;;;1.40;;
18360;SDS011;9308;48.550;9.108;2022-12-31T09:19:25;1.57;;;1.47;;
18360;SDS011;9308;48.550;9.108;2022-12-31T09:21:51;1.30;;;1.30;;
18360;SDS011;9308;48.550;9.108;2022-12-31T09:24:17;1.60;;;1.50;;
18360;SDS011;9308;48.550;9.108;2022-12-31T09:26:48;1.30;;;1.30;;
18360;SDS011;9308;48.550;9.108;2022-12-31T09:32:01;1.83;;;1.67;;
18360;SDS011;9308;48.550;9.108;2022-12-31T09:34:37;1.30;;;1.20;;
18360;SDS011;9308;48.550;9.108;2022-12-31T09:37:41;2.20;;;1.10;;
18360;SDS011;9308;48.550;9.108;2022-12-31T09:45:45;1.07;;;1.07;;
18360;SDS011;9308;48.550;9.108;2022-12-31T10:00:20;1.30;;;1.20;;
18360;SDS011;9308;48.550;9.108;2022-12-31T10:05:48;1.47;;;1.37;;
18360;SDS011;9308;48.550;9.108;2022-12-31T10:09:01;1.53;;;1.43;;
18360;SDS011;9308;48.550;9.108;2022-12-31T10:11:41;1.50;;;1.33;;
18360;SDS011;9308;48.550;9.108;2022-12-31T10:16:58;1.60;;;1.27;;
18360;SDS011;9308;48.550;9.108;2022-12-31T10:27:59;1.20;;;1.20;;
18360;SDS011;9308;48.550;9.108;2022-12-31T10:30:36;1.07;;;1.07;;
18360;SDS011;9308;48.550;9.108;2022-12-31T10:33:34;1.33;;;1.10;;
18360;SDS011;9308;48.550;9.108;2022-12-31T10:39:07;4.80;;;1.40;;
18360;SDS011;9308;48.550;9.108;2022-12-31T10:41:41;1.40;;;1.23;;
18360;SDS011;9308;48.550;9.108;2022-12-31T10:47:40;2.70;;;1.23;;
18360;SDS011;9308;48.550;9.108;2022-12-31T11:19:25;1.70;;;1.43;;
18360;SDS011;9308;48.550;9.108;2022-12-31T11:30:26;1.00;;;1.00;;
18360;SDS011;9308;48.550;9.108;2022-12-31T11:38:28;1.13;;;1.07;;
18360;SDS011;9308;48.550;9.108;2022-12-31T11:41:08;2.00;;;1.33;;
18360;SDS011;9308;48.550;9.108;2022-12-31T11:43:52;1.00;;;1.00;;
18360;SDS011;9308;48.550;9.108;2022-12-31T11:46:33;1.00;;;1.00;;
18360;SDS011;9308;48.550;9.108;2022-12-31T11:49:16;1.03;;;1.03;;
18360;SDS011;9308;48.550;9.108;2022-12-31T11:54:51;1.43;;;0.90;;
18360;SDS011;9308;48.550;9.108;2022-12-31T11:57:33;1.20;;;1.10;;
18360;SDS011;9308;48.550;9.108;2022-12-31T12:00:16;1.40;;;1.30;;
18360;SDS011;9308;48.550;9.108;2022-12-31T12:02:45;1.50;;;1.17;;
18360;SDS011;9308;48.550;9.108;2022-12-31T12:05:18;1.30;;;1.20;;
18360;SDS011;9308;48.550;9.108;2022-12-31T12:07:46;1.10;;;1.10;;
18360;SDS011;9308;48.550;9.108;2022-12-31T12:10:20;1.90;;;0.80;;
18360;SDS011;9308;48.550;9.108;2022-12-31T12:12:48;1.53;;;1.20;;
18360;SDS011;9308;48.550;9.108;2022-12-31T12:15:22;1.63;;;1.53;;
18360;SDS011;9308;48.550;9.108;2022-12-31T12:17:55;1.10;;;1.00;;
18360;SDS011;9308;48.550;9.108;2022-12-31T12:20:31;1.23;;;1.10;;
18360;SDS011;9308;48.550;9.108;2022-12-31T12:23:01;1.10;;;1.00;;
18360;SDS011;9308;48.550;9.108;2022-12-31T12:25:41;1.60;;;1.50;;
18360;SDS011;9308;48.550;9.108;2022-12-31T12:28:42;1.60;;;0.97;;
18360;SDS011;9308;48.550;9.108;2022-12-31T12:31:41;2.00;;;1.20;;
18360;SDS011;9308;48.550;9.108;2022-12-31T12:34:00;1.00;;;1.00;;
18360;SDS011;9308;48.550;9.108;2022-12-31T12:36:25;1.00;;;1.00;;
18360;SDS011;9308;48.550;9.108;2022-12-31T12:39:04;1.13;;;1.03;;
18360;SDS011;9308;48.550;9.108;2022-12-31T12:41:30;1.60;;;1.13;;
18360;SDS011;9308;48.550;9.108;2022-12-31T12:44:06;2.07;;;1.10;;
18360;SDS011;9308;48.550;9.108;2022-12-31T12:46:42;1.20;;;1.10;;
18360;SDS011;9308;48.550;9.108;2022-12-31T12:49:13;0.90;;;0.90;;
18360;SDS011;9308;48.550;9.108;2022-12-31T12:52:08;1.10;;;1.10;;
18360;SDS011;9308;48.550;9.108;2022-12-31T12:57:28;2.50;;;1.80;;
18360;SDS011;9308;48.550;9.108;2022-12-31T13:00:00;2.93;;;1.97;;
18360;SDS011;9308;48.550;9.108;2022-12-31T13:02:38;1.50;;;1.40;;
18360;SDS011;9308;48.550;9.108;2022-12-31T13:05:28;1.70;;;1.60;;
18360;SDS011;9308;48.550;9.108;2022-12-31T13:19:21;3.83;;;1.10;;
18360;SDS011;9308;48.550;9.108;2022-12-31T13:30:12;1.30;;;1.20;;
18360;SDS011;9308;48.550;9.108;2022-12-31T13:32:51;5.90;;;1.20;;
18360;SDS011;9308;48.550;9.108;2022-12-31T13:35:28;2.37;;;1.33;;
18360;SDS011;9308;48.550;9.108;2022-12-31T13:38:16;1.37;;;1.27;;
18360;SDS011;9308;48.550;9.108;2022-12-31T13:40:54;1.20;;;1.10;;
18360;SDS011;9308;48.550;9.108;2022-12-31T13:46:16;3.00;;;1.00;;
18360;SDS011;9308;48.550;9.108;2022-12-31T13:48:49;1.63;;;1.07;;
18360;SDS011;9308;48.550;9.108;2022-12-31T13:53:58;1.13;;;1.03;;
18360;SDS011;9308;48.550;9.108;2022-12-31T13:56:28;1.90;;;1.33;;
18360;SDS011;9308;48.550;9.108;2022-12-31T13:59:01;1.23;;;1.23;;
18360;SDS011;9308;48.550;9.108;2022-12-31T14:04:32;1.67;;;1.23;;
18360;SDS011;9308;48.550;9.108;2022-12-31T14:07:02;1.40;;;1.30;;
18360;SDS011;9308;48.550;9.108;2022-12-31T14:09:34;1.90;;;1.50;;
18360;SDS011;9308;48.550;9.108;2022-12-31T14:12:04;3.40;;;1.40;;
18360;SDS011;9308;48.550;9.108;2022-12-31T14:17:18;2.57;;;1.50;;
18360;SDS011;9308;48.550;9.108;2022-12-31T14:20:46;1.47;;;1.37;;
18360;SDS011;9308;48.550;9.108;2022-12-31T14:23:02;4.23;;;1.30;;
18360;SDS011;9308;48.550;9.108;2022-12-31T14:25:45;1.60;;;1.40;;
18360;SDS011;9308;48.550;9.108;2022-12-31T14:28:18;1.57;;;1.47;;
18360;SDS011;9308;48.550;9.108;2022-12-31T14:30:50;1.83;;;1.73;;
18360;SDS011;9308;48.550;9.108;2022-12-31T14:33:38;2.40;;;1.70;;
18360;SDS011;9308;48.550;9.108;2022-12-31T14:36:56;1.80;;;1.60;;
18360;SDS011;9308;48.550;9.108;2022-12-31T14:39:35;1.70;;;1.60;;
18360;SDS011;9308;48.550;9.108;2022-12-31T14:42:28;3.00;;;1.80;;
18360;SDS011;9308;48.550;9.108;2022-12-31T14:45:05;2.53;;;1.73;;
18360;SDS011;9308;48.550;9.108;2022-12-31T14:47:56;1.80;;;1.70;;
18360;SDS011;9308;48.550;9.108;2022-12-31T14:50:28;1.90;;;1.80;;
18360;SDS011;9308;48.550;9.108;2022-12-31T14:53:05;1.70;;;1.60;;
18360;SDS011;9308;48.550;9.108;2022-12-31T14:55:34;1.70;;;1.47;;
18360;SDS011;9308;48.550;9.108;2022-12-31T14:58:02;1.80;;;1.53;;
18360;SDS011;9308;48.550;9.108;2022-12-31T15:00:50;1.67;;;1.57;;
18360;SDS011;9308;48.550;9.108;2022-12-31T15:03:22;1.63;;;1.53;;
18360;SDS011;9308;48.550;9.108;2022-12-31T15:06:02;1.80;;;1.60;;
18360;SDS011;9308;48.550;9.108;2022-12-31T15:08:48;1.77;;;1.67;;
18360;SDS011;9308;48.550;9.108;2022-12-31T15:17:28;2.00;;;1.60;;
18360;SDS011;9308;48.550;9.108;2022-12-31T15:23:11;2.40;;;2.20;;
18360;SDS011;9308;48.550;9.108;2022-12-31T15:25:38;2.97;;;2.40;;
18360;SDS011;9308;48.550;9.108;2022-12-31T15:28:20;2.40;;;2.20;;
18360;SDS011;9308;48.550;9.108;2022-12-31T15:30:53;2.50;;;2.30;;
18360;SDS011;9308;48.550;9.108;2022-12-31T15:33:32;3.23;;;2.87;;
18360;SDS011;9308;48.550;9.108;2022-12-31T15:38:44;3.17;;;2.97;;
18360;SDS011;9308;48.550;9.108;2022-12-31T15:41:12;3.70;;;3.23;;
18360;SDS011;9308;48.550;9.108;2022-12-31T15:43:39;3.80;;;3.50;;
18360;SDS011;9308;48.550;9.108;2022-12-31T15:46:30;4.53;;;4.20;;
18360;SDS011;9308;48.550;9.108;2022-12-31T15:49:16;4.60;;;4.20;;
18360;SDS011;9308;48.550;9.108;2022-12-31T15:51:51;5.47;;;5.03;;
18360;SDS011;9308;48.550;9.108;2022-12-31T15:54:26;5.50;;;5.00;;
18360;SDS011;9308;48.550;9.108;2022-12-31T15:57:10;5.20;;;4.80;;
18360;SDS011;9308;48.550;9.108;2022-12-31T15:59:41;6.03;;;4.37;;
18360;SDS011;9308;48.550;9.108;2022-12-31T16:02:17;6.20;;;4.90;;
18360;SDS011;9308;48.550;9.108;2022-12-31T16:04:46;5.30;;;4.80;;
18360;SDS011;9308;48.550;9.108;2022-12-31T16:07:12;4.80;;;4.00;;
18360;SDS011;9308;48.550;9.108;2022-12-31T16:09:38;4.37;;;4.07;;
18360;SDS011;9308;48.550;9.108;2022-12-31T16:12:08;4.40;;;3.90;;
18360;SDS011;9308;48.550;9.108;2022-12-31T16:14:37;4.13;;;3.73;;
18360;SDS011;9308;48.550;9.108;2022-12-31T16:17:04;3.00;;;2.80;;
18360;SDS011;9308;48.550;9.108;2022-12-31T16:22:08;2.43;;;2.23;;
18360;SDS011;9308;48.550;9.108;2022-12-31T16:24:38;3.37;;;2.47;;
18360;SDS011;9308;48.550;9.108;2022-12-31T16:27:05;4.43;;;2.50;;
18360;SDS011;9308;48.550;9.108;2022-12-31T16:29:36;2.60;;;2.40;;
18360;SDS011;9308;48.550;9.108;2022-12-31T16:32:08;2.10;;;1.90;;
18360;SDS011;9308;48.550;9.108;2022-12-31T16:34:38;2.33;;;2.13;;
18360;SDS011;9308;48.550;9.108;2022-12-31T16:37:04;2.13;;;1.93;;
18360;SDS011;9308;48.550;9.108;2022-12-31T16:39:39;2.73;;;2.53;;
18360;SDS011;9308;48.550;9.108;2022-12-31T16:42:31;2.57;;;2.10;;
18360;SDS011;9308;48.550;9.108;2022-12-31T16:44:56;2.00;;;1.90;;
18360;SDS011;9308;48.550;9.108;2022-12-31T16:47:34;2.73;;;2.40;;
18360;SDS011;9308;48.550;9.108;2022-12-31T16:50:15;2.10;;;2.00;;
18360;SDS011;9308;48.550;9.108;2022-12-31T16:52:46;2.30;;;2.20;;
18360;SDS011;9308;48.550;9.108;2022-12-31T16:55:18;3.30;;;3.00;;
18360;SDS011;9308;48.550;9.108;2022-12-31T16:57:51;4.20;;;3.80;;
18360;SDS011;9308;48.550;9.108;2022-12-31T17:00:23;3.27;;;3.07;;
18360;SDS011;9308;48.550;9.108;2022-12-31T17:03:02;3.53;;;3.23;;
18360;SDS011;9308;48.550;9.108;2022-12-31T17:05:33;3.50;;;3.20;;
18360;SDS011;9308;48.550;9.108;2022-12-31T17:08:24;3.87;;;3.37;;
18360;SDS011;9308;48.550;9.108;2022-12-31T17:10:52;4.30;;;3.90;;
18360;SDS011;9308;48.550;9.108;2022-12-31T17:13:22;4.30;;;3.93;;
18360;SDS011;9308;48.550;9.108;2022-12-31T17:15:51;4.23;;;3.83;;
18360;SDS011;9308;48.550;9.108;2022-12-31T17:18:18;4.07;;;3.70;;
18360;SDS011;9308;48.550;9.108;2022-12-31T17:20:46;3.27;;;3.07;;
18360;SDS011;9308;48.550;9.108;2022-12-31T17:23:21;5.20;;;4.80;;
18360;SDS011;9308;48.550;9.108;2022-12-31T17:25:49;5.10;;;4.70;;
18360;SDS011;9308;48.550;9.108;2022-12-31T17:28:22;4.00;;;3.60;;
18360;SDS011;9308;48.550;9.108;2022-12-31T17:30:50;4.77;;;4.37;;
18360;SDS011;9308;48.550;9.108;2022-12-31T17:35:45;4.10;;;3.80;;
18360;SDS011;9308;48.550;9.108;2022-12-31T17:40:42;4.67;;;4.17;;
18360;SDS011;9308;48.550;9.108;2022-12-31T17:43:09;6.30;;;4.97;;
18360;SDS011;9308;48.550;9.108;2022-12-31T17:45:36;4.83;;;4.43;;
18360;SDS011;9308;48.550;9.108;2022-12-31T17:48:03;5.73;;;5.33;;
18360;SDS011;9308;48.550;9.108;2022-12-31T17:50:29;4.97;;;4.60;;
18360;SDS011;9308;48.550;9.108;2022-12-31T17:52:55;8.93;;;8.23;;
18360;SDS011;9308;48.550;9.108;2022-12-31T17:55:25;11.70;;;10.70;;
18360;SDS011;9308;48.550;9.108;2022-12-31T17:57:52;10.10;;;9.10;;
18360;SDS011;9308;48.550;9.108;2022-12-31T18:00:21;8.50;;;7.80;;
18360;SDS011;9308;48.550;9.108;2022-12-31T18:02:48;6.00;;;4.60;;
18360;SDS011;9308;48.550;9.108;2022-12-31T18:05:18;5.70;;;5.20;;
18360;SDS011;9308;48.550;9.108;2022-12-31T18:07:45;6.67;;;6.17;;
18360;SDS011;9308;48.550;9.108;2022-12-31T18:10:12;5.47;;;4.87;;
18360;SDS011;9308;48.550;9.108;2022-12-31T18:12:39;9.60;;;4.30;;
18360;SDS011;9308;48.550;9.108;2022-12-31T18:15:06;4.43;;;4.00;;
18360;SDS011;9308;48.550;9.108;2022-12-31T18:17:31;4.70;;;4.30;;
18360;SDS011;9308;48.550;9.108;2022-12-31T18:19:59;3.93;;;3.60;;
18360;SDS011;9308;48.550;9.108;2022-12-31T18:22:25;4.77;;;3.80;;
18360;SDS011;9308;48.550;9.108;2022-12-31T18:24:51;7.43;;;5.60;;
18360;SDS011;9308;48.550;9.108;2022-12-31T18:27:20;7.70;;;5.13;;
18360;SDS011;9308;48.550;9.108;2022-12-31T18:29:46;6.60;;;5.03;;
18360;SDS011;9308;48.550;9.108;2022-12-31T18:32:22;8.10;;;5.70;;
18360;SDS011;9308;48.550;9.108;2022-12-31T18:34:49;7.77;;;6.80;;
18360;SDS011;9308;48.550;9.108;2022-12-31T18:37:15;8.90;;;6.80;;
18360;SDS011;9308;48.550;9.108;2022-12-31T18:39:42;8.97;;;8.17;;
18360;SDS011;9308;48.550;9.108;2022-12-31T18:42:14;10.60;;;9.70;;
18360;SDS011;9308;48.550;9.108;2022-12-31T18:44:42;12.60;;;11.50;;